sensor_id;sensor_type;location;lat;lon;timestamp;temperature;humidity
23087;DHT22;11712;51.134;4.156;2022-07-29T00:00:43;18.60;99.90
23087;DHT22;11712;51.134;4.156;2022-07-29T00:03:12;18.50;99.90
23087;DHT22;11712;51.134;4.156;2022-07-29T00:05:41;18.50;99.90
23087;DHT22;11712;51.134;4.156;2022-07-29T00:08:08;18.50;99.90
23087;DHT22;11712;51.134;4.156;2022-07-29T00:10:34;18.40;99.90
23087;DHT22;11712;51.134;4.156;2022-07-29T00:13:00;18.40;99.90
23087;DHT22;11712;51.134;4.156;2022-07-29T00:15:25;18.40;99.90
23087;DHT22;11712;51.134;4.156;2022-07-29T00:17:51;18.40;99.90
23087;DHT22;11712;51.134;4.156;2022-07-29T00:20:17;18.30;99.90
23087;DHT22;11712;51.134;4.156;2022-07-29T00:22:43;18.30;99.90
23087;DHT22;11712;51.134;4.156;2022-07-29T00:25:09;18.30;99.90
23087;DHT22;11712;51.134;4.156;2022-07-29T00:27:35;18.30;99.90
23087;DHT22;11712;51.134;4.156;2022-07-29T00:30:02;18.30;99.90
23087;DHT22;11712;51.134;4.156;2022-07-29T00:32:28;18.30;99.90
23087;DHT22;11712;51.134;4.156;2022-07-29T00:34:54;18.30;99.90
23087;DHT22;11712;51.134;4.156;2022-07-29T00:37:38;18.30;99.90
23087;DHT22;11712;51.134;4.156;2022-07-29T00:40:04;18.20;99.90
23087;DHT22;11712;51.134;4.156;2022-07-29T00:42:30;18.30;99.90
23087;DHT22;11712;51.134;4.156;2022-07-29T00:44:55;18.30;99.90
23087;DHT22;11712;51.134;4.156;2022-07-29T00:47:21;18.30;99.90
23087;DHT22;11712;51.134;4.156;2022-07-29T00:49:47;18.30;99.90
23087;DHT22;11712;51.134;4.156;2022-07-29T00:52:13;18.30;99.90
23087;DHT22;11712;51.134;4.156;2022-07-29T00:54:39;18.30;99.90
23087;DHT22;11712;51.134;4.156;2022-07-29T00:57:07;18.30;99.90
23087;DHT22;11712;51.134;4.156;2022-07-29T00:59:35;18.20;99.90
23087;DHT22;11712;51.134;4.156;2022-07-29T01:02:04;18.20;99.90
23087;DHT22;11712;51.134;4.156;2022-07-29T01:04:31;18.20;99.90
23087;DHT22;11712;51.134;4.156;2022-07-29T01:06:57;18.20;99.90
23087;DHT22;11712;51.134;4.156;2022-07-29T01:09:23;18.20;99.90
23087;DHT22;11712;51.134;4.156;2022-07-29T01:11:50;18.30;99.90
23087;DHT22;11712;51.134;4.156;2022-07-29T01:14:16;18.30;99.90
23087;DHT22;11712;51.134;4.156;2022-07-29T01:16:46;18.30;99.90
23087;DHT22;11712;51.134;4.156;2022-07-29T01:30:29;18.50;99.90
23087;DHT22;11712;51.134;4.156;2022-07-29T01:32:59;18.50;99.90
23087;DHT22;11712;51.134;4.156;2022-07-29T01:35:34;18.30;99.90
23087;DHT22;11712;51.134;4.156;2022-07-29T01:38:21;18.20;99.90
23087;DHT22;11712;51.134;4.156;2022-07-29T01:40:58;18.20;99.90
23087;DHT22;11712;51.134;4.156;2022-07-29T01:43:39;18.30;99.90
23087;DHT22;11712;51.134;4.156;2022-07-29T01:46:13;18.30;99.90
23087;DHT22;11712;51.134;4.156;2022-07-29T01:48:50;18.10;99.90
23087;DHT22;11712;51.134;4.156;2022-07-29T01:51:21;18.00;99.90
23087;DHT22;11712;51.134;4.156;2022-07-29T01:53:57;17.90;99.90
23087;DHT22;11712;51.134;4.156;2022-07-29T01:56:29;17.80;99.90
23087;DHT22;11712;51.134;4.156;2022-07-29T01:58:58;17.70;99.90
23087;DHT22;11712;51.134;4.156;2022-07-29T02:01:25;17.70;99.90
23087;DHT22;11712;51.134;4.156;2022-07-29T02:03:53;17.60;99.90
23087;DHT22;11712;51.134;4.156;2022-07-29T02:06:22;17.60;99.90
23087;DHT22;11712;51.134;4.156;2022-07-29T02:08:49;17.60;99.90
23087;DHT22;11712;51.134;4.156;2022-07-29T02:11:15;17.60;99.90
23087;DHT22;11712;51.134;4.156;2022-07-29T02:13:43;17.50;99.90
23087;DHT22;11712;51.134;4.156;2022-07-29T02:16:10;17.40;99.90
23087;DHT22;11712;51.134;4.156;2022-07-29T02:18:41;17.40;99.90
23087;DHT22;11712;51.134;4.156;2022-07-29T02:21:07;17.40;99.90
23087;DHT22;11712;51.134;4.156;2022-07-29T02:23:35;17.30;99.90
23087;DHT22;11712;51.134;4.156;2022-07-29T02:26:02;17.30;99.90
23087;DHT22;11712;51.134;4.156;2022-07-29T02:28:29;17.20;99.90
23087;DHT22;11712;51.134;4.156;2022-07-29T02:30:58;17.20;99.90
23087;DHT22;11712;51.134;4.156;2022-07-29T02:33:25;17.10;99.90
23087;DHT22;11712;51.134;4.156;2022-07-29T02:35:52;17.10;99.90
23087;DHT22;11712;51.134;4.156;2022-07-29T02:38:20;17.20;99.90
23087;DHT22;11712;51.134;4.156;2022-07-29T02:41:11;17.00;99.90
23087;DHT22;11712;51.134;4.156;2022-07-29T02:43:38;17.00;99.90
23087;DHT22;11712;51.134;4.156;2022-07-29T02:46:06;17.00;99.90
23087;DHT22;11712;51.134;4.156;2022-07-29T02:48:38;17.00;99.90
23087;DHT22;11712;51.134;4.156;2022-07-29T02:51:16;17.00;99.90
23087;DHT22;11712;51.134;4.156;2022-07-29T02:53:44;16.90;99.90
23087;DHT22;11712;51.134;4.156;2022-07-29T02:56:14;16.90;99.90
23087;DHT22;11712;51.134;4.156;2022-07-29T02:58:46;16.90;99.90
23087;DHT22;11712;51.134;4.156;2022-07-29T03:01:22;16.90;99.90
23087;DHT22;11712;51.134;4.156;2022-07-29T03:03:50;17.00;99.90
23087;DHT22;11712;51.134;4.156;2022-07-29T03:06:19;16.90;99.90
23087;DHT22;11712;51.134;4.156;2022-07-29T03:08:46;16.90;99.90
23087;DHT22;11712;51.134;4.156;2022-07-29T03:11:13;16.90;99.90
23087;DHT22;11712;51.134;4.156;2022-07-29T03:13:40;16.80;99.90
23087;DHT22;11712;51.134;4.156;2022-07-29T03:16:06;16.80;99.90
23087;DHT22;11712;51.134;4.156;2022-07-29T03:18:34;16.80;99.90
23087;DHT22;11712;51.134;4.156;2022-07-29T03:21:01;16.70;99.90
23087;DHT22;11712;51.134;4.156;2022-07-29T03:23:26;16.70;99.90
23087;DHT22;11712;51.134;4.156;2022-07-29T03:25:54;16.70;99.90
23087;DHT22;11712;51.134;4.156;2022-07-29T03:28:21;16.60;99.90
23087;DHT22;11712;51.134;4.156;2022-07-29T03:30:47;16.60;99.90
23087;DHT22;11712;51.134;4.156;2022-07-29T03:33:13;16.60;99.90
23087;DHT22;11712;51.134;4.156;2022-07-29T03:35:39;16.50;99.90
23087;DHT22;11712;51.134;4.156;2022-07-29T03:38:04;16.60;99.90
23087;DHT22;11712;51.134;4.156;2022-07-29T03:40:38;16.60;99.90
23087;DHT22;11712;51.134;4.156;2022-07-29T03:43:05;16.60;99.90
23087;DHT22;11712;51.134;4.156;2022-07-29T03:45:31;16.50;99.90
23087;DHT22;11712;51.134;4.156;2022-07-29T03:48:07;16.40;99.90
23087;DHT22;11712;51.134;4.156;2022-07-29T03:50:34;16.30;99.90
23087;DHT22;11712;51.134;4.156;2022-07-29T03:53:01;16.30;99.90
23087;DHT22;11712;51.134;4.156;2022-07-29T03:55:29;16.20;99.90
23087;DHT22;11712;51.134;4.156;2022-07-29T03:57:57;16.30;99.90
23087;DHT22;11712;51.134;4.156;2022-07-29T04:00:24;16.20;99.90
23087;DHT22;11712;51.134;4.156;2022-07-29T04:02:50;16.10;99.90
23087;DHT22;11712;51.134;4.156;2022-07-29T04:05:17;16.10;99.90
23087;DHT22;11712;51.134;4.156;2022-07-29T04:07:46;16.20;99.90
23087;DHT22;11712;51.134;4.156;2022-07-29T04:10:13;16.10;99.90
23087;DHT22;11712;51.134;4.156;2022-07-29T04:12:41;16.10;99.90
23087;DHT22;11712;51.134;4.156;2022-07-29T04:15:07;16.10;99.90
23087;DHT22;11712;51.134;4.156;2022-07-29T04:17:32;16.00;99.90
23087;DHT22;11712;51.134;4.156;2022-07-29T04:19:58;16.00;99.90
23087;DHT22;11712;51.134;4.156;2022-07-29T04:22:24;16.00;99.90
23087;DHT22;11712;51.134;4.156;2022-07-29T04:24:49;16.00;99.90
23087;DHT22;11712;51.134;4.156;2022-07-29T04:27:15;16.00;99.90
23087;DHT22;11712;51.134;4.156;2022-07-29T04:29:41;16.00;99.90
23087;DHT22;11712;51.134;4.156;2022-07-29T04:32:06;16.00;99.90
23087;DHT22;11712;51.134;4.156;2022-07-29T04:34:32;15.90;99.90
23087;DHT22;11712;51.134;4.156;2022-07-29T04:36:58;16.00;99.90
23087;DHT22;11712;51.134;4.156;2022-07-29T04:39:24;16.20;99.90
23087;DHT22;11712;51.134;4.156;2022-07-29T04:41:50;16.10;99.90
23087;DHT22;11712;51.134;4.156;2022-07-29T04:44:15;16.10;99.90
23087;DHT22;11712;51.134;4.156;2022-07-29T04:46:41;16.00;99.90
23087;DHT22;11712;51.134;4.156;2022-07-29T04:49:07;16.00;99.90
23087;DHT22;11712;51.134;4.156;2022-07-29T04:51:34;16.00;99.90
23087;DHT22;11712;51.134;4.156;2022-07-29T04:54:00;16.10;99.90
23087;DHT22;11712;51.134;4.156;2022-07-29T04:56:26;16.20;99.90
23087;DHT22;11712;51.134;4.156;2022-07-29T04:58:52;16.20;99.90
23087;DHT22;11712;51.134;4.156;2022-07-29T05:01:18;16.30;99.90
23087;DHT22;11712;51.134;4.156;2022-07-29T05:03:44;16.30;99.90
23087;DHT22;11712;51.134;4.156;2022-07-29T05:06:11;16.30;99.90
23087;DHT22;11712;51.134;4.156;2022-07-29T05:08:37;16.30;99.90
23087;DHT22;11712;51.134;4.156;2022-07-29T05:11:02;16.30;99.90
23087;DHT22;11712;51.134;4.156;2022-07-29T05:13:28;16.40;99.90
23087;DHT22;11712;51.134;4.156;2022-07-29T05:15:54;16.40;99.90
23087;DHT22;11712;51.134;4.156;2022-07-29T05:18:20;16.50;99.90
23087;DHT22;11712;51.134;4.156;2022-07-29T05:20:47;16.50;99.90
23087;DHT22;11712;51.134;4.156;2022-07-29T05:23:13;16.60;99.90
23087;DHT22;11712;51.134;4.156;2022-07-29T05:25:39;16.80;99.90
23087;DHT22;11712;51.134;4.156;2022-07-29T05:28:05;17.00;99.90
23087;DHT22;11712;51.134;4.156;2022-07-29T05:30:31;17.20;99.90
23087;DHT22;11712;51.134;4.156;2022-07-29T05:32:56;17.30;99.90
23087;DHT22;11712;51.134;4.156;2022-07-29T05:35:22;17.30;99.90
23087;DHT22;11712;51.134;4.156;2022-07-29T05:37:48;17.40;99.90
23087;DHT22;11712;51.134;4.156;2022-07-29T05:40:14;17.60;99.90
23087;DHT22;11712;51.134;4.156;2022-07-29T05:42:39;17.90;99.90
23087;DHT22;11712;51.134;4.156;2022-07-29T05:45:05;18.10;99.90
23087;DHT22;11712;51.134;4.156;2022-07-29T05:47:31;18.40;99.90
23087;DHT22;11712;51.134;4.156;2022-07-29T05:49:57;18.50;99.90
23087;DHT22;11712;51.134;4.156;2022-07-29T05:52:22;18.60;99.90
23087;DHT22;11712;51.134;4.156;2022-07-29T05:54:48;18.70;99.90
23087;DHT22;11712;51.134;4.156;2022-07-29T05:57:22;18.40;99.90
23087;DHT22;11712;51.134;4.156;2022-07-29T05:59:50;18.40;99.90
23087;DHT22;11712;51.134;4.156;2022-07-29T06:02:16;18.50;99.90
23087;DHT22;11712;51.134;4.156;2022-07-29T06:04:41;18.30;99.90
23087;DHT22;11712;51.134;4.156;2022-07-29T06:07:07;18.10;99.90
23087;DHT22;11712;51.134;4.156;2022-07-29T06:09:33;17.80;99.90
23087;DHT22;11712;51.134;4.156;2022-07-29T06:11:59;17.70;99.90
23087;DHT22;11712;51.134;4.156;2022-07-29T06:14:25;17.80;99.90
23087;DHT22;11712;51.134;4.156;2022-07-29T06:16:55;17.70;99.90
23087;DHT22;11712;51.134;4.156;2022-07-29T06:19:20;17.90;99.90
23087;DHT22;11712;51.134;4.156;2022-07-29T06:21:47;18.10;99.90
23087;DHT22;11712;51.134;4.156;2022-07-29T06:24:14;18.30;99.90
23087;DHT22;11712;51.134;4.156;2022-07-29T06:26:40;18.20;99.90
23087;DHT22;11712;51.134;4.156;2022-07-29T06:29:07;18.20;99.90
23087;DHT22;11712;51.134;4.156;2022-07-29T06:31:32;18.40;99.90
23087;DHT22;11712;51.134;4.156;2022-07-29T06:33:58;18.50;99.90
23087;DHT22;11712;51.134;4.156;2022-07-29T06:36:24;18.40;99.90
23087;DHT22;11712;51.134;4.156;2022-07-29T06:38:49;18.40;99.90
23087;DHT22;11712;51.134;4.156;2022-07-29T06:41:15;18.50;99.90
23087;DHT22;11712;51.134;4.156;2022-07-29T06:43:43;18.40;99.90
23087;DHT22;11712;51.134;4.156;2022-07-29T06:46:11;18.50;99.90
23087;DHT22;11712;51.134;4.156;2022-07-29T06:48:38;18.40;99.90
23087;DHT22;11712;51.134;4.156;2022-07-29T06:51:05;18.50;99.90
23087;DHT22;11712;51.134;4.156;2022-07-29T06:53:31;18.70;99.90
23087;DHT22;11712;51.134;4.156;2022-07-29T06:55:58;18.80;99.90
23087;DHT22;11712;51.134;4.156;2022-07-29T06:58:24;18.80;99.90
23087;DHT22;11712;51.134;4.156;2022-07-29T07:00:50;18.80;99.90
23087;DHT22;11712;51.134;4.156;2022-07-29T07:03:17;19.20;99.90
23087;DHT22;11712;51.134;4.156;2022-07-29T07:05:44;19.40;99.90
23087;DHT22;11712;51.134;4.156;2022-07-29T07:08:11;19.70;99.90
23087;DHT22;11712;51.134;4.156;2022-07-29T07:10:37;20.00;99.90
23087;DHT22;11712;51.134;4.156;2022-07-29T07:13:03;20.20;99.90
23087;DHT22;11712;51.134;4.156;2022-07-29T07:15:29;20.20;99.90
23087;DHT22;11712;51.134;4.156;2022-07-29T07:17:55;20.30;99.90
23087;DHT22;11712;51.134;4.156;2022-07-29T07:20:22;20.50;99.90
23087;DHT22;11712;51.134;4.156;2022-07-29T07:22:47;20.70;99.90
23087;DHT22;11712;51.134;4.156;2022-07-29T07:25:13;20.30;99.90
23087;DHT22;11712;51.134;4.156;2022-07-29T07:27:39;20.50;99.90
23087;DHT22;11712;51.134;4.156;2022-07-29T07:30:06;20.90;99.90
23087;DHT22;11712;51.134;4.156;2022-07-29T07:32:35;21.50;99.90
23087;DHT22;11712;51.134;4.156;2022-07-29T07:35:01;21.70;99.90
23087;DHT22;11712;51.134;4.156;2022-07-29T07:37:27;21.90;99.90
23087;DHT22;11712;51.134;4.156;2022-07-29T07:39:53;22.00;99.90
23087;DHT22;11712;51.134;4.156;2022-07-29T07:42:19;21.50;99.90
23087;DHT22;11712;51.134;4.156;2022-07-29T07:44:44;21.00;99.90
23087;DHT22;11712;51.134;4.156;2022-07-29T07:47:14;21.10;99.90
23087;DHT22;11712;51.134;4.156;2022-07-29T07:49:40;21.00;99.90
23087;DHT22;11712;51.134;4.156;2022-07-29T07:52:05;21.10;99.90
23087;DHT22;11712;51.134;4.156;2022-07-29T07:54:31;21.30;99.90
23087;DHT22;11712;51.134;4.156;2022-07-29T07:56:57;21.50;99.90
23087;DHT22;11712;51.134;4.156;2022-07-29T07:59:22;21.50;99.90
23087;DHT22;11712;51.134;4.156;2022-07-29T08:01:49;21.50;99.90
23087;DHT22;11712;51.134;4.156;2022-07-29T08:04:15;21.70;99.90
23087;DHT22;11712;51.134;4.156;2022-07-29T08:06:41;21.60;99.90
23087;DHT22;11712;51.134;4.156;2022-07-29T08:09:07;21.90;99.90
23087;DHT22;11712;51.134;4.156;2022-07-29T08:11:33;22.10;99.90
23087;DHT22;11712;51.134;4.156;2022-07-29T08:13:58;21.70;99.90
23087;DHT22;11712;51.134;4.156;2022-07-29T08:16:26;21.70;99.90
23087;DHT22;11712;51.134;4.156;2022-07-29T08:18:52;21.30;99.90
23087;DHT22;11712;51.134;4.156;2022-07-29T08:21:23;21.50;99.90
23087;DHT22;11712;51.134;4.156;2022-07-29T08:23:50;21.80;99.90
23087;DHT22;11712;51.134;4.156;2022-07-29T08:26:19;21.60;99.90
23087;DHT22;11712;51.134;4.156;2022-07-29T08:28:46;21.70;99.90
23087;DHT22;11712;51.134;4.156;2022-07-29T08:31:15;21.50;99.90
23087;DHT22;11712;51.134;4.156;2022-07-29T08:33:42;21.60;99.90
23087;DHT22;11712;51.134;4.156;2022-07-29T08:36:08;21.90;99.90
23087;DHT22;11712;51.134;4.156;2022-07-29T08:38:34;21.60;99.90
23087;DHT22;11712;51.134;4.156;2022-07-29T08:41:00;21.70;99.90
23087;DHT22;11712;51.134;4.156;2022-07-29T08:43:28;22.10;99.90
23087;DHT22;11712;51.134;4.156;2022-07-29T08:45:53;22.10;99.90
23087;DHT22;11712;51.134;4.156;2022-07-29T08:48:23;22.10;99.90
23087;DHT22;11712;51.134;4.156;2022-07-29T08:50:52;21.90;99.90
23087;DHT22;11712;51.134;4.156;2022-07-29T08:53:20;22.10;99.90
23087;DHT22;11712;51.134;4.156;2022-07-29T08:55:48;21.80;99.90
23087;DHT22;11712;51.134;4.156;2022-07-29T08:58:15;21.80;99.90
23087;DHT22;11712;51.134;4.156;2022-07-29T09:00:44;21.90;99.90
23087;DHT22;11712;51.134;4.156;2022-07-29T09:03:14;22.20;99.90
23087;DHT22;11712;51.134;4.156;2022-07-29T09:05:45;22.30;99.90
23087;DHT22;11712;51.134;4.156;2022-07-29T09:08:12;22.10;99.90
23087;DHT22;11712;51.134;4.156;2022-07-29T09:10:38;22.00;99.90
23087;DHT22;11712;51.134;4.156;2022-07-29T09:13:04;22.10;99.90
23087;DHT22;11712;51.134;4.156;2022-07-29T09:15:30;22.30;99.90
23087;DHT22;11712;51.134;4.156;2022-07-29T09:17:56;22.50;99.90
23087;DHT22;11712;51.134;4.156;2022-07-29T09:20:24;22.70;99.90
23087;DHT22;11712;51.134;4.156;2022-07-29T09:22:51;22.90;99.90
23087;DHT22;11712;51.134;4.156;2022-07-29T09:25:34;22.80;99.90
23087;DHT22;11712;51.134;4.156;2022-07-29T09:28:13;22.80;99.90
23087;DHT22;11712;51.134;4.156;2022-07-29T09:30:53;23.10;99.90
23087;DHT22;11712;51.134;4.156;2022-07-29T09:33:31;22.90;99.90
23087;DHT22;11712;51.134;4.156;2022-07-29T09:36:04;23.00;99.90
23087;DHT22;11712;51.134;4.156;2022-07-29T09:38:30;22.80;99.90
23087;DHT22;11712;51.134;4.156;2022-07-29T09:40:57;23.00;99.90
23087;DHT22;11712;51.134;4.156;2022-07-29T09:43:23;22.90;99.90
23087;DHT22;11712;51.134;4.156;2022-07-29T09:45:49;23.10;99.90
23087;DHT22;11712;51.134;4.156;2022-07-29T09:48:20;23.50;99.90
23087;DHT22;11712;51.134;4.156;2022-07-29T09:50:48;23.60;99.90
23087;DHT22;11712;51.134;4.156;2022-07-29T09:53:44;23.20;99.90
23087;DHT22;11712;51.134;4.156;2022-07-29T09:56:10;23.30;99.90
23087;DHT22;11712;51.134;4.156;2022-07-29T09:58:36;23.20;99.90
23087;DHT22;11712;51.134;4.156;2022-07-29T10:01:02;23.10;99.90
23087;DHT22;11712;51.134;4.156;2022-07-29T10:03:29;23.30;99.90
23087;DHT22;11712;51.134;4.156;2022-07-29T10:06:08;23.40;99.90
23087;DHT22;11712;51.134;4.156;2022-07-29T10:08:34;23.50;99.90
23087;DHT22;11712;51.134;4.156;2022-07-29T10:11:15;23.30;99.90
23087;DHT22;11712;51.134;4.156;2022-07-29T10:13:44;23.40;99.90
23087;DHT22;11712;51.134;4.156;2022-07-29T10:16:10;23.50;99.90
23087;DHT22;11712;51.134;4.156;2022-07-29T10:18:40;23.80;99.90
23087;DHT22;11712;51.134;4.156;2022-07-29T10:21:06;24.00;99.90
23087;DHT22;11712;51.134;4.156;2022-07-29T10:23:34;23.80;99.90
23087;DHT22;11712;51.134;4.156;2022-07-29T10:26:00;23.80;99.90
23087;DHT22;11712;51.134;4.156;2022-07-29T10:28:26;23.80;99.90
23087;DHT22;11712;51.134;4.156;2022-07-29T10:31:01;23.90;99.90
23087;DHT22;11712;51.134;4.156;2022-07-29T10:42:21;24.40;99.90
23087;DHT22;11712;51.134;4.156;2022-07-29T10:44:50;24.40;99.90
23087;DHT22;11712;51.134;4.156;2022-07-29T10:47:34;24.00;99.90
23087;DHT22;11712;51.134;4.156;2022-07-29T10:50:02;24.00;99.90
23087;DHT22;11712;51.134;4.156;2022-07-29T10:55:37;24.30;99.90
23087;DHT22;11712;51.134;4.156;2022-07-29T10:58:13;24.70;99.90
23087;DHT22;11712;51.134;4.156;2022-07-29T11:00:39;25.00;99.90
23087;DHT22;11712;51.134;4.156;2022-07-29T11:03:05;24.60;99.90
23087;DHT22;11712;51.134;4.156;2022-07-29T11:05:51;24.50;99.90
23087;DHT22;11712;51.134;4.156;2022-07-29T11:08:19;24.70;99.90
23087;DHT22;11712;51.134;4.156;2022-07-29T11:10:51;24.60;99.90
23087;DHT22;11712;51.134;4.156;2022-07-29T11:13:51;24.60;99.90
23087;DHT22;11712;51.134;4.156;2022-07-29T11:16:19;24.50;99.90
23087;DHT22;11712;51.134;4.156;2022-07-29T11:21:40;24.70;99.90
23087;DHT22;11712;51.134;4.156;2022-07-29T11:24:32;24.80;99.90
23087;DHT22;11712;51.134;4.156;2022-07-29T11:27:17;24.90;99.90
23087;DHT22;11712;51.134;4.156;2022-07-29T11:29:53;25.00;99.90
23087;DHT22;11712;51.134;4.156;2022-07-29T11:32:20;25.20;99.90
23087;DHT22;11712;51.134;4.156;2022-07-29T11:35:09;24.90;99.90
23087;DHT22;11712;51.134;4.156;2022-07-29T11:37:35;25.20;99.90
23087;DHT22;11712;51.134;4.156;2022-07-29T11:47:48;25.40;99.90
23087;DHT22;11712;51.134;4.156;2022-07-29T11:50:37;25.00;99.90
23087;DHT22;11712;51.134;4.156;2022-07-29T11:53:12;24.80;99.90
23087;DHT22;11712;51.134;4.156;2022-07-29T11:55:39;24.70;99.90
23087;DHT22;11712;51.134;4.156;2022-07-29T11:58:05;25.00;99.90
23087;DHT22;11712;51.134;4.156;2022-07-29T12:00:35;25.20;99.90
23087;DHT22;11712;51.134;4.156;2022-07-29T12:03:09;25.30;99.90
23087;DHT22;11712;51.134;4.156;2022-07-29T12:05:41;25.10;99.90
23087;DHT22;11712;51.134;4.156;2022-07-29T12:08:18;25.60;99.90
23087;DHT22;11712;51.134;4.156;2022-07-29T12:10:46;26.10;99.90
23087;DHT22;11712;51.134;4.156;2022-07-29T12:13:13;26.20;99.90
23087;DHT22;11712;51.134;4.156;2022-07-29T12:15:40;26.40;99.90
23087;DHT22;11712;51.134;4.156;2022-07-29T12:18:14;26.50;99.90
23087;DHT22;11712;51.134;4.156;2022-07-29T12:20:40;26.80;99.90
23087;DHT22;11712;51.134;4.156;2022-07-29T12:23:07;26.80;99.90
23087;DHT22;11712;51.134;4.156;2022-07-29T12:25:35;26.10;99.90
23087;DHT22;11712;51.134;4.156;2022-07-29T12:28:07;25.70;99.90
23087;DHT22;11712;51.134;4.156;2022-07-29T12:30:42;25.80;99.90
23087;DHT22;11712;51.134;4.156;2022-07-29T12:33:26;25.90;99.90
23087;DHT22;11712;51.134;4.156;2022-07-29T12:36:00;25.70;99.90
23087;DHT22;11712;51.134;4.156;2022-07-29T12:38:27;25.90;99.90
23087;DHT22;11712;51.134;4.156;2022-07-29T12:40:54;26.40;99.90
23087;DHT22;11712;51.134;4.156;2022-07-29T12:43:22;26.70;99.90
23087;DHT22;11712;51.134;4.156;2022-07-29T12:45:50;27.00;99.90
23087;DHT22;11712;51.134;4.156;2022-07-29T12:48:18;27.50;99.90
23087;DHT22;11712;51.134;4.156;2022-07-29T12:51:00;27.80;99.90
23087;DHT22;11712;51.134;4.156;2022-07-29T12:53:27;28.00;99.90
23087;DHT22;11712;51.134;4.156;2022-07-29T12:55:54;28.00;99.90
23087;DHT22;11712;51.134;4.156;2022-07-29T13:03:26;27.70;99.90
23087;DHT22;11712;51.134;4.156;2022-07-29T13:05:52;27.70;99.90
23087;DHT22;11712;51.134;4.156;2022-07-29T13:08:18;27.70;99.90
23087;DHT22;11712;51.134;4.156;2022-07-29T13:10:45;27.70;99.90
23087;DHT22;11712;51.134;4.156;2022-07-29T13:13:14;27.60;99.90
23087;DHT22;11712;51.134;4.156;2022-07-29T13:15:45;27.70;99.90
23087;DHT22;11712;51.134;4.156;2022-07-29T13:18:33;27.10;99.90
23087;DHT22;11712;51.134;4.156;2022-07-29T13:21:14;26.60;99.90
23087;DHT22;11712;51.134;4.156;2022-07-29T13:23:41;26.40;99.90
23087;DHT22;11712;51.134;4.156;2022-07-29T13:26:08;26.90;99.90
23087;DHT22;11712;51.134;4.156;2022-07-29T13:28:34;27.20;99.90
23087;DHT22;11712;51.134;4.156;2022-07-29T13:31:00;27.40;99.90
23087;DHT22;11712;51.134;4.156;2022-07-29T13:33:26;27.60;99.90
23087;DHT22;11712;51.134;4.156;2022-07-29T13:35:51;28.20;99.90
23087;DHT22;11712;51.134;4.156;2022-07-29T13:38:17;28.00;99.90
23087;DHT22;11712;51.134;4.156;2022-07-29T13:40:43;27.80;99.90
23087;DHT22;11712;51.134;4.156;2022-07-29T13:43:10;28.00;99.90
23087;DHT22;11712;51.134;4.156;2022-07-29T13:45:35;28.00;99.90
23087;DHT22;11712;51.134;4.156;2022-07-29T13:48:01;27.60;99.90
23087;DHT22;11712;51.134;4.156;2022-07-29T13:50:27;27.40;99.90
23087;DHT22;11712;51.134;4.156;2022-07-29T13:52:53;27.20;99.90
23087;DHT22;11712;51.134;4.156;2022-07-29T13:55:19;27.00;99.90
23087;DHT22;11712;51.134;4.156;2022-07-29T13:57:45;27.40;99.90
23087;DHT22;11712;51.134;4.156;2022-07-29T14:00:11;27.40;99.90
23087;DHT22;11712;51.134;4.156;2022-07-29T14:02:38;27.50;99.90
23087;DHT22;11712;51.134;4.156;2022-07-29T14:05:05;27.60;99.90
23087;DHT22;11712;51.134;4.156;2022-07-29T14:07:31;27.80;99.90
23087;DHT22;11712;51.134;4.156;2022-07-29T14:09:56;27.80;99.90
23087;DHT22;11712;51.134;4.156;2022-07-29T14:12:22;27.90;99.90
23087;DHT22;11712;51.134;4.156;2022-07-29T14:14:48;27.90;99.90
23087;DHT22;11712;51.134;4.156;2022-07-29T14:17:14;27.50;99.90
23087;DHT22;11712;51.134;4.156;2022-07-29T14:19:40;27.40;99.90
23087;DHT22;11712;51.134;4.156;2022-07-29T14:22:08;27.30;99.90
23087;DHT22;11712;51.134;4.156;2022-07-29T14:24:35;27.80;99.90
23087;DHT22;11712;51.134;4.156;2022-07-29T14:27:01;28.60;99.90
23087;DHT22;11712;51.134;4.156;2022-07-29T14:29:26;29.80;99.90
23087;DHT22;11712;51.134;4.156;2022-07-29T14:31:52;31.00;98.60
23087;DHT22;11712;51.134;4.156;2022-07-29T14:34:18;31.90;97.40
23087;DHT22;11712;51.134;4.156;2022-07-29T14:36:44;31.60;96.40
23087;DHT22;11712;51.134;4.156;2022-07-29T14:39:10;31.80;95.70
23087;DHT22;11712;51.134;4.156;2022-07-29T14:41:35;31.80;95.60
23087;DHT22;11712;51.134;4.156;2022-07-29T14:44:01;31.80;96.00
23087;DHT22;11712;51.134;4.156;2022-07-29T14:46:27;32.40;94.80
23087;DHT22;11712;51.134;4.156;2022-07-29T14:48:53;32.50;95.00
23087;DHT22;11712;51.134;4.156;2022-07-29T14:51:19;33.10;93.90
23087;DHT22;11712;51.134;4.156;2022-07-29T14:53:45;33.10;92.60
23087;DHT22;11712;51.134;4.156;2022-07-29T14:56:10;32.90;92.20
23087;DHT22;11712;51.134;4.156;2022-07-29T14:58:36;32.00;92.20
23087;DHT22;11712;51.134;4.156;2022-07-29T15:01:02;32.20;91.60
23087;DHT22;11712;51.134;4.156;2022-07-29T15:03:28;32.50;91.20
23087;DHT22;11712;51.134;4.156;2022-07-29T15:05:54;33.60;91.00
23087;DHT22;11712;51.134;4.156;2022-07-29T15:08:20;32.80;91.30
23087;DHT22;11712;51.134;4.156;2022-07-29T15:10:46;32.30;91.80
23087;DHT22;11712;51.134;4.156;2022-07-29T15:13:12;32.00;91.50
23087;DHT22;11712;51.134;4.156;2022-07-29T15:15:37;31.40;92.10
23087;DHT22;11712;51.134;4.156;2022-07-29T15:18:03;31.90;92.30
23087;DHT22;11712;51.134;4.156;2022-07-29T15:20:29;32.90;91.50
23087;DHT22;11712;51.134;4.156;2022-07-29T15:22:55;33.00;91.00
23087;DHT22;11712;51.134;4.156;2022-07-29T15:25:22;33.80;90.40
23087;DHT22;11712;51.134;4.156;2022-07-29T15:27:48;33.40;90.00
23087;DHT22;11712;51.134;4.156;2022-07-29T15:30:14;33.60;88.50
23087;DHT22;11712;51.134;4.156;2022-07-29T15:32:43;33.50;88.70
23087;DHT22;11712;51.134;4.156;2022-07-29T15:35:08;32.70;88.30
23087;DHT22;11712;51.134;4.156;2022-07-29T15:37:36;31.50;90.10
23087;DHT22;11712;51.134;4.156;2022-07-29T15:40:02;31.00;91.20
23087;DHT22;11712;51.134;4.156;2022-07-29T15:42:28;30.20;91.70
23087;DHT22;11712;51.134;4.156;2022-07-29T15:44:54;30.10;92.60
23087;DHT22;11712;51.134;4.156;2022-07-29T15:47:21;31.30;91.70
23087;DHT22;11712;51.134;4.156;2022-07-29T15:49:46;31.00;91.40
23087;DHT22;11712;51.134;4.156;2022-07-29T15:52:12;31.80;91.10
23087;DHT22;11712;51.134;4.156;2022-07-29T15:54:39;32.00;91.10
23087;DHT22;11712;51.134;4.156;2022-07-29T15:57:07;31.60;90.80
23087;DHT22;11712;51.134;4.156;2022-07-29T15:59:33;32.40;90.50
23087;DHT22;11712;51.134;4.156;2022-07-29T16:01:59;32.10;90.40
23087;DHT22;11712;51.134;4.156;2022-07-29T16:04:26;32.00;90.60
23087;DHT22;11712;51.134;4.156;2022-07-29T16:06:52;32.50;90.40
23087;DHT22;11712;51.134;4.156;2022-07-29T16:09:17;31.30;91.00
23087;DHT22;11712;51.134;4.156;2022-07-29T16:11:43;30.90;92.00
23087;DHT22;11712;51.134;4.156;2022-07-29T16:14:11;30.60;92.60